Lucerne, Colorado
Current Conditions -  °F | °C
As of 3:35 PM on Monday 20 Oct 2014 (Local Time) from KGXY Reporting Station
Clear Clear  
Wind Chill: 79°   Ceiling: Unl
Heat Index: 79°   Visibility: 10mi
Dew Point: 34°   Wind: 10mph
Humidity: 20%   Direction: 210°SSW
Pressure: 30.03"   Gusts: NA
Location:  40.48°N, 104.7°W
Report Text: KGXY 202135Z AUTO 21009KT 10SM CLR 26/01 A3003 RMK AO1
Loading
Personal Weather Stations






























Interactive Weather Map
Tropical Storm Tracking
New forecast layout! Learn more

10-Day Weather Forecast

Advertisements
Track Severe Weather on mobile